createdAt,value
2022-08-28T00:02:12.343Z,100130.03
2022-08-28T00:04:40.788Z,100128.33
2022-08-28T00:07:09.514Z,100129.28
2022-08-28T00:09:38.116Z,100132.30
2022-08-28T00:12:06.556Z,100126.23
2022-08-28T00:14:34.843Z,100127.29
2022-08-28T00:17:04.056Z,100126.25
2022-08-28T00:19:36.625Z,100127.23
2022-08-28T00:22:08.012Z,100122.71
2022-08-28T00:24:37.082Z,100120.48
2022-08-28T00:27:24.184Z,100119.54
2022-08-28T00:29:52.409Z,100121.50
2022-08-28T00:32:23.538Z,100116.83
2022-08-28T00:34:52.243Z,100115.00
2022-08-28T00:37:20.504Z,100114.41
2022-08-28T00:39:52.566Z,100113.95
2022-08-28T00:42:21.426Z,100113.32
2022-08-28T00:44:49.589Z,100093.98
2022-08-28T00:47:17.614Z,100110.67
2022-08-28T00:49:53.381Z,100109.16
2022-08-28T00:52:24.562Z,100107.77
2022-08-28T00:55:05.881Z,100107.14
2022-08-28T00:57:45.252Z,100104.80
2022-08-28T01:00:20.161Z,100104.59
2022-08-28T01:02:48.423Z,100101.48
2022-08-28T01:05:17.581Z,100100.92
2022-08-28T01:07:45.966Z,100101.33
2022-08-28T01:10:18.448Z,100098.86
2022-08-28T01:12:47.961Z,100103.21
2022-08-28T01:15:20.765Z,100101.94
2022-08-28T01:17:54.217Z,100106.06
2022-08-28T01:20:31.735Z,100105.48
2022-08-28T01:23:13.620Z,100101.16
2022-08-28T01:25:43.034Z,100101.16
2022-08-28T01:28:25.456Z,100098.48
2022-08-28T01:30:53.335Z,100097.38
2022-08-28T01:33:27.960Z,100100.69
2022-08-28T01:35:57.044Z,100098.52
2022-08-28T01:38:27.005Z,100070.53
2022-08-28T01:40:58.310Z,100107.10
2022-08-28T01:43:28.073Z,100108.42
2022-08-28T01:46:02.126Z,100106.14
2022-08-28T01:48:33.385Z,100108.16
2022-08-28T01:51:01.547Z,100104.55
2022-08-28T01:53:32.499Z,100110.18
2022-08-28T01:56:04.898Z,100111.46
2022-08-28T01:58:37.907Z,100111.23
2022-08-28T02:01:11.769Z,100110.55
2022-08-28T02:03:40.870Z,100096.30
2022-08-28T02:06:09.699Z,100109.11
2022-08-28T02:08:37.907Z,100110.63
2022-08-28T02:11:07.690Z,100109.03
2022-08-28T02:13:36.577Z,100116.73
2022-08-28T02:16:09.129Z,100117.11
2022-08-28T02:18:38.455Z,100117.38
2022-08-28T02:21:08.458Z,100121.29
2022-08-28T02:23:42.403Z,100122.10
2022-08-28T02:26:12.298Z,100118.89
2022-08-28T02:28:41.406Z,100117.71
2022-08-28T02:31:09.846Z,100118.70
2022-08-28T02:33:39.789Z,100118.92
2022-08-28T02:36:09.624Z,100116.35
2022-08-28T02:38:38.444Z,100113.56
2022-08-28T02:41:07.182Z,100111.86
2022-08-28T02:43:35.863Z,100113.95
2022-08-28T02:46:05.245Z,100111.02
2022-08-28T02:48:35.699Z,100111.11
2022-08-28T02:51:14.253Z,100096.00
2022-08-28T02:53:42.955Z,100114.15
2022-08-28T02:56:12.186Z,100115.04
2022-08-28T02:58:44.153Z,100113.63
2022-08-28T03:01:21.653Z,100115.45
2022-08-28T03:03:49.725Z,100118.63
2022-08-28T03:06:17.687Z,100119.88
2022-08-28T03:08:45.788Z,100116.91
2022-08-28T03:11:13.847Z,100112.11
2022-08-28T03:13:42.516Z,100110.11
2022-08-28T03:16:11.589Z,100109.11
2022-08-28T03:18:40.151Z,100110.85
2022-08-28T03:21:09.390Z,100118.27
2022-08-28T03:23:38.589Z,100116.60
2022-08-28T03:26:09.865Z,100116.29
2022-08-28T03:28:47.305Z,100116.45
2022-08-28T03:31:19.902Z,100117.42
2022-08-28T03:33:48.648Z,100115.61
2022-08-28T03:36:21.792Z,100112.89
2022-08-28T03:38:51.722Z,100113.30
2022-08-28T03:41:23.528Z,100114.01
2022-08-28T03:43:51.961Z,100112.15
2022-08-28T03:46:23.770Z,100115.95
2022-08-28T03:48:53.611Z,100122.83
2022-08-28T03:51:29.789Z,100125.09
2022-08-28T03:53:59.796Z,100127.88
2022-08-28T03:56:30.366Z,100123.84
2022-08-28T03:59:01.456Z,100126.04
2022-08-28T04:01:29.971Z,100128.71
2022-08-28T04:03:58.127Z,100131.88
2022-08-28T04:06:27.999Z,100120.91
2022-08-28T04:09:00.062Z,100123.98
2022-08-28T04:11:29.388Z,100131.45
2022-08-28T04:13:58.111Z,100131.65
2022-08-28T04:16:26.017Z,100133.64
2022-08-28T04:18:54.658Z,100124.27
2022-08-28T04:21:24.457Z,100139.66
2022-08-28T04:23:52.770Z,100138.10
2022-08-28T04:26:23.025Z,100139.05
2022-08-28T04:28:52.704Z,100137.23
2022-08-28T04:31:31.773Z,100137.44
2022-08-28T04:34:03.652Z,100134.98
2022-08-28T04:36:33.894Z,100134.38
2022-08-28T04:39:05.644Z,100136.14
2022-08-28T04:41:33.490Z,100136.02
2022-08-28T04:44:01.753Z,100140.67
2022-08-28T04:46:31.067Z,100106.58
2022-08-28T04:48:59.699Z,100135.86
2022-08-28T04:51:28.161Z,100136.45
2022-08-28T04:53:57.451Z,100139.39
2022-08-28T04:56:26.660Z,100138.23
2022-08-28T04:58:54.938Z,100141.99
2022-08-28T05:01:24.773Z,100147.54
2022-08-28T05:03:57.885Z,100147.08
2022-08-28T05:06:28.818Z,100145.04
2022-08-28T05:08:59.341Z,100148.09
2022-08-28T05:11:34.078Z,100149.92
2022-08-28T05:14:12.733Z,100148.24
2022-08-28T05:16:49.751Z,100145.14
2022-08-28T05:19:19.538Z,100143.27
2022-08-28T05:21:48.219Z,100143.14
2022-08-28T05:24:16.566Z,100113.90
2022-08-28T05:26:44.930Z,100146.16
2022-08-28T05:29:17.118Z,100148.02
2022-08-28T05:31:46.295Z,100149.67
2022-08-28T05:34:15.338Z,100149.97
2022-08-28T05:36:43.475Z,100151.86
2022-08-28T05:39:12.505Z,100148.84
2022-08-28T05:41:45.004Z,100151.05
2022-08-28T05:44:16.608Z,100154.23
2022-08-28T05:46:48.195Z,100138.82
2022-08-28T05:49:19.569Z,100156.54
2022-08-28T05:51:49.219Z,100144.38
2022-08-28T05:54:17.743Z,100157.72
2022-08-28T05:56:46.606Z,100156.20
2022-08-28T05:59:16.065Z,100155.48
2022-08-28T06:01:47.233Z,100158.25
2022-08-28T06:04:21.930Z,100154.05
2022-08-28T06:06:50.240Z,100152.66
2022-08-28T06:09:29.601Z,100155.60
2022-08-28T06:12:00.965Z,100156.81
2022-08-28T06:14:31.621Z,100157.33
2022-08-28T06:17:01.865Z,100155.48
2022-08-28T06:19:31.613Z,100152.52
2022-08-28T06:22:07.098Z,100151.42
2022-08-28T06:24:37.724Z,100149.98
2022-08-28T06:27:06.398Z,100150.92
2022-08-28T06:29:34.507Z,100149.14
2022-08-28T06:32:05.126Z,100145.73
2022-08-28T06:34:33.576Z,100144.76
2022-08-28T06:37:01.863Z,100148.41
2022-08-28T06:39:30.056Z,100150.49
2022-08-28T06:41:58.466Z,100147.44
2022-08-28T06:44:27.517Z,100145.97
2022-08-28T06:46:55.742Z,100146.64
2022-08-28T06:49:24.090Z,100147.25
2022-08-28T06:51:52.044Z,100147.85
2022-08-28T06:54:23.218Z,100149.03
2022-08-28T06:56:52.259Z,100142.31
2022-08-28T06:59:20.841Z,100142.33
2022-08-28T07:01:49.421Z,100100.03
2022-08-28T07:04:17.554Z,100140.37
2022-08-28T07:06:53.637Z,100138.32
2022-08-28T07:09:27.116Z,100141.96
2022-08-28T07:11:58.555Z,100142.17
2022-08-28T07:14:26.860Z,100145.30
2022-08-28T07:16:55.638Z,100149.20
2022-08-28T07:19:23.642Z,100148.55
2022-08-28T07:21:51.978Z,100145.40
2022-08-28T07:24:20.359Z,100142.71
2022-08-28T07:26:48.525Z,100145.30
2022-08-28T07:29:17.420Z,100143.67
2022-08-28T07:31:49.293Z,100147.09
2022-08-28T07:34:19.532Z,100149.04
2022-08-28T07:36:48.206Z,100152.68
2022-08-28T07:39:16.264Z,100155.12
2022-08-28T07:41:44.967Z,100155.92
2022-08-28T07:44:34.015Z,100154.85
2022-08-28T07:47:05.974Z,100152.35
2022-08-28T07:49:35.278Z,100149.94
2022-08-28T07:52:04.864Z,100152.13
2022-08-28T07:54:33.061Z,100151.40
2022-08-28T07:57:02.385Z,100150.55
2022-08-28T07:59:36.651Z,100148.86
2022-08-28T08:02:06.118Z,100148.31
2022-08-28T08:04:35.362Z,100148.65
2022-08-28T08:07:04.272Z,100141.95
2022-08-28T08:09:37.662Z,100145.98
2022-08-28T08:12:10.298Z,100142.63
2022-08-28T08:14:40.310Z,100143.04
2022-08-28T08:17:08.960Z,100143.16
2022-08-28T08:19:37.374Z,100151.08
2022-08-28T08:22:06.489Z,100152.89
2022-08-28T08:24:34.526Z,100135.36
2022-08-28T08:27:02.972Z,100150.29
2022-08-28T08:29:35.633Z,100152.36
2022-08-28T08:32:07.318Z,100156.58
2022-08-28T08:34:39.001Z,100153.39
2022-08-28T08:37:07.570Z,100157.56
2022-08-28T08:39:38.046Z,100154.31
2022-08-28T08:42:19.146Z,100152.52
2022-08-28T08:44:50.351Z,100156.91
2022-08-28T08:47:43.767Z,100157.41
2022-08-28T08:50:27.634Z,100156.49
2022-08-28T08:53:20.697Z,100159.98
2022-08-28T08:55:54.170Z,100160.16
2022-08-28T08:58:31.925Z,100162.23
2022-08-28T09:01:31.326Z,100161.08
2022-08-28T09:04:08.715Z,100160.52
2022-08-28T09:06:57.035Z,100161.81
2022-08-28T09:09:35.329Z,100162.23
2022-08-28T09:12:15.088Z,100152.35
2022-08-28T09:15:17.748Z,100163.15
2022-08-28T09:17:57.286Z,100160.40
2022-08-28T09:20:32.522Z,100161.23
2022-08-28T09:23:13.165Z,100158.70
2022-08-28T09:25:45.387Z,100149.45
2022-08-28T09:28:38.516Z,100158.55
2022-08-28T09:31:08.810Z,100156.95
2022-08-28T09:33:42.315Z,100159.88
2022-08-28T09:36:31.802Z,100156.05
2022-08-28T09:39:12.887Z,100141.65
2022-08-28T09:42:07.203Z,100150.35
2022-08-28T09:44:51.327Z,100151.83
2022-08-28T09:47:52.389Z,100149.45
2022-08-28T09:50:34.871Z,100148.58
2022-08-28T09:53:11.873Z,100151.94
2022-08-28T09:56:19.703Z,100147.46
2022-08-28T09:59:10.030Z,100150.96
2022-08-28T10:01:44.744Z,100153.36
2022-08-28T10:04:16.983Z,100151.88
2022-08-28T10:07:09.431Z,100150.01
2022-08-28T10:10:08.666Z,100146.77
2022-08-28T10:13:01.655Z,100145.11
2022-08-28T10:16:12.293Z,100150.52
2022-08-28T10:19:03.099Z,100142.83
2022-08-28T10:22:11.285Z,100140.67
2022-08-28T10:25:05.334Z,100138.46
2022-08-28T10:27:55.218Z,100134.50
2022-08-28T10:30:25.408Z,100130.59
2022-08-28T10:33:15.599Z,100129.05
2022-08-28T10:35:50.935Z,100131.42
2022-08-28T10:38:42.936Z,100129.86
2022-08-28T10:41:20.083Z,100131.56
2022-08-28T10:43:51.346Z,100131.96
2022-08-28T10:46:29.664Z,100133.01
2022-08-28T10:49:37.247Z,100132.94
2022-08-28T10:52:45.073Z,100132.64
2022-08-28T10:55:25.676Z,100134.35
2022-08-28T10:58:03.414Z,100133.36
2022-08-28T11:00:32.570Z,100130.83
2022-08-28T11:03:33.179Z,100133.02
2022-08-28T11:06:08.844Z,100134.56
2022-08-28T11:08:40.026Z,100135.14
2022-08-28T11:11:14.952Z,100134.61
2022-08-28T11:13:59.805Z,100104.48
2022-08-28T11:16:28.286Z,100131.86
2022-08-28T11:19:07.422Z,100130.41
2022-08-28T11:21:52.558Z,100136.11
2022-08-28T11:24:34.105Z,100133.80
2022-08-28T11:27:17.224Z,100135.03
2022-08-28T11:30:10.987Z,100134.39
2022-08-28T11:32:51.113Z,100134.77
2022-08-28T11:35:30.954Z,100131.45
2022-08-28T11:37:59.048Z,100130.27
2022-08-28T11:40:30.005Z,100119.83
2022-08-28T11:43:19.247Z,100133.45
2022-08-28T11:45:47.591Z,100132.14
2022-08-28T11:48:37.609Z,100133.79
2022-08-28T11:51:18.364Z,100134.85
2022-08-28T11:53:55.435Z,100131.77
2022-08-28T11:56:55.508Z,100134.32
2022-08-28T11:59:44.930Z,100131.36
2022-08-28T12:02:41.697Z,100132.77
2022-08-28T12:05:12.637Z,100130.17
2022-08-28T12:07:48.526Z,100128.42
2022-08-28T12:10:22.811Z,100093.72
2022-08-28T12:12:57.506Z,100127.11
2022-08-28T12:15:28.599Z,100128.02
2022-08-28T12:18:00.820Z,100125.09
2022-08-28T12:25:15.847Z,100123.29
2022-08-28T12:27:59.501Z,100123.48
2022-08-28T12:30:53.182Z,100119.55
2022-08-28T12:33:57.815Z,100120.60
2022-08-28T12:36:36.169Z,100118.26
2022-08-28T12:39:04.038Z,100113.55
2022-08-28T12:41:33.193Z,100115.09
2022-08-28T12:44:01.985Z,100111.02
2022-08-28T12:46:36.472Z,100102.30
2022-08-28T12:49:29.811Z,100097.60
2022-08-28T12:52:27.316Z,100094.61
2022-08-28T12:54:55.966Z,100093.17
2022-08-28T12:57:25.481Z,100087.08
2022-08-28T12:59:55.634Z,100072.17
2022-08-28T13:02:30.651Z,100080.80
2022-08-28T13:05:05.591Z,100076.73
2022-08-28T13:07:38.903Z,100076.47
2022-08-28T13:10:24.269Z,100075.23
2022-08-28T13:12:59.737Z,100077.09
2022-08-28T13:15:47.927Z,100077.65
2022-08-28T13:18:34.565Z,100078.64
2022-08-28T13:21:37.439Z,100076.98
2022-08-28T13:24:34.884Z,100075.46
2022-08-28T13:27:23.735Z,100072.06
2022-08-28T13:30:02.968Z,100069.48
2022-08-28T13:32:34.115Z,100054.27
2022-08-28T13:35:10.317Z,100065.02
2022-08-28T13:37:46.957Z,100065.34
2022-08-28T13:40:45.898Z,100068.32
2022-08-28T13:43:11.165Z,100071.48
2022-08-28T13:45:44.868Z,100059.54
2022-08-28T13:48:15.803Z,100041.43
2022-08-28T13:50:47.602Z,100075.23
2022-08-28T13:53:19.010Z,100073.48
2022-08-28T13:55:49.625Z,100073.27
2022-08-28T13:58:18.529Z,100072.30
2022-08-28T14:00:49.871Z,100072.27
2022-08-28T14:03:37.732Z,100072.52
2022-08-28T14:06:11.986Z,100074.09
2022-08-28T14:08:41.891Z,100070.97
2022-08-28T14:11:12.517Z,100068.04
2022-08-28T14:13:46.903Z,100068.42
2022-08-28T14:16:25.534Z,100070.77
2022-08-28T14:18:54.262Z,100067.31
2022-08-28T14:21:24.622Z,100066.87
2022-08-28T14:23:52.916Z,100057.08
2022-08-28T14:26:21.193Z,100069.59
2022-08-28T14:28:49.304Z,100069.33
2022-08-28T14:31:17.564Z,100064.64
2022-08-28T14:33:47.150Z,100059.42
2022-08-28T14:36:17.622Z,100061.13
2022-08-28T14:38:45.543Z,100060.42
2022-08-28T14:41:15.063Z,100063.96
2022-08-28T14:43:44.553Z,100069.38
2022-08-28T14:46:28.751Z,100068.79
2022-08-28T14:48:59.549Z,100066.27
2022-08-28T14:51:28.079Z,100064.90
2022-08-28T14:53:56.232Z,100065.25
2022-08-28T14:56:24.472Z,100064.77
2022-08-28T14:58:53.335Z,100068.77
2022-08-28T15:01:40.250Z,100070.65
2022-08-28T15:04:13.600Z,100072.59
2022-08-28T15:06:42.793Z,100076.30
2022-08-28T15:09:12.406Z,100074.17
2022-08-28T15:11:42.212Z,100074.56
2022-08-28T15:14:11.036Z,100075.98
2022-08-28T15:16:43.852Z,100086.52
2022-08-28T15:19:16.081Z,100089.84
2022-08-28T15:21:47.657Z,100091.75
2022-08-28T15:24:20.775Z,100096.16
2022-08-28T15:26:48.889Z,100097.71
2022-08-28T15:29:16.998Z,100099.17
2022-08-28T15:31:49.708Z,100080.42
2022-08-28T15:34:21.421Z,100090.11
2022-08-28T15:36:54.780Z,100088.05
2022-08-28T15:39:44.746Z,100084.48
2022-08-28T15:42:13.910Z,100068.27
2022-08-28T15:44:42.461Z,100075.09
2022-08-28T15:47:12.659Z,100072.25
2022-08-28T15:49:46.887Z,100073.90
2022-08-28T15:52:19.226Z,100072.84
2022-08-28T15:54:49.022Z,100074.41
2022-08-28T15:57:17.808Z,100069.80
2022-08-28T15:59:50.779Z,100069.40
2022-08-28T16:02:23.147Z,100073.70
2022-08-28T16:04:52.636Z,100067.83
2022-08-28T16:07:22.164Z,100076.84
2022-08-28T16:09:50.257Z,100081.34
2022-08-28T16:12:19.154Z,100089.08
2022-08-28T16:14:50.466Z,100088.84
2022-08-28T16:17:19.271Z,100091.74
2022-08-28T16:19:48.243Z,100090.76
2022-08-28T16:22:17.581Z,100098.08
2022-08-28T16:24:46.124Z,100101.46
2022-08-28T16:27:15.684Z,100108.60
2022-08-28T16:30:02.802Z,100107.16
2022-08-28T16:32:31.352Z,100107.09
2022-08-28T16:34:59.387Z,100106.98
2022-08-28T16:37:37.596Z,100102.57
2022-08-28T16:40:11.714Z,100076.63
2022-08-28T16:42:51.454Z,100098.92
2022-08-28T16:45:20.607Z,100103.73
2022-08-28T16:47:49.344Z,100108.45
2022-08-28T16:50:19.581Z,100115.80
2022-08-28T16:52:47.760Z,100126.23
2022-08-28T16:55:15.904Z,100132.20
2022-08-28T16:57:44.221Z,100139.67
2022-08-28T17:00:13.811Z,100141.48
2022-08-28T17:02:42.621Z,100149.43
2022-08-28T17:05:14.269Z,100149.02
2022-08-28T17:07:43.552Z,100169.52
2022-08-28T17:10:14.063Z,100171.30
2022-08-28T17:12:41.945Z,100193.92
2022-08-28T17:15:11.446Z,100184.91
2022-08-28T17:17:40.110Z,100199.30
2022-08-28T17:20:30.938Z,100204.94
2022-08-28T17:22:58.843Z,100211.59
2022-08-28T17:25:26.916Z,100216.10
2022-08-28T17:27:55.155Z,100226.43
2022-08-28T17:30:23.622Z,100231.91
2022-08-28T17:32:51.945Z,100233.83
2022-08-28T17:35:19.903Z,100228.88
2022-08-28T17:37:48.097Z,100228.46
2022-08-28T17:40:17.465Z,100229.81
2022-08-28T17:42:45.891Z,100234.77
2022-08-28T17:45:15.257Z,100236.21
2022-08-28T17:47:43.604Z,100233.95
2022-08-28T17:50:12.160Z,100234.95
2022-08-28T17:52:40.432Z,100235.41
2022-08-28T17:55:09.269Z,100242.29
2022-08-28T17:57:39.544Z,100246.34
2022-08-28T18:00:11.463Z,100239.02
2022-08-28T18:02:43.670Z,100241.21
2022-08-28T18:05:13.542Z,100245.71
2022-08-28T18:07:42.221Z,100257.70
2022-08-28T18:10:11.965Z,100258.18
2022-08-28T18:12:42.081Z,100248.51
2022-08-28T18:15:13.098Z,100248.61
2022-08-28T18:17:43.103Z,100251.15
2022-08-28T18:20:12.416Z,100248.66
2022-08-28T18:22:40.387Z,100248.54
2022-08-28T18:25:29.566Z,100248.15
2022-08-28T18:27:57.798Z,100245.60
2022-08-28T18:30:27.162Z,100230.32
2022-08-28T18:32:59.129Z,100244.54
2022-08-28T18:35:31.929Z,100242.18
2022-08-28T18:38:01.705Z,100244.48
2022-08-28T18:40:30.409Z,100244.66
2022-08-28T18:42:58.800Z,100238.32
2022-08-28T18:45:27.650Z,100236.70
2022-08-28T18:47:58.099Z,100234.91
2022-08-28T18:50:28.591Z,100232.77
2022-08-28T18:53:11.839Z,100234.43
2022-08-28T18:55:39.805Z,100230.71
2022-08-28T18:58:15.426Z,100231.00
2022-08-28T19:00:45.694Z,100229.06
2022-08-28T19:03:14.653Z,100230.52
2022-08-28T19:05:42.614Z,100230.83
2022-08-28T19:08:10.738Z,100225.80
2022-08-28T19:10:38.972Z,100222.33
2022-08-28T19:13:08.296Z,100222.52
2022-08-28T19:15:36.998Z,100223.77
2022-08-28T19:18:05.870Z,100228.96
2022-08-28T19:20:34.631Z,100230.11
2022-08-28T19:23:02.571Z,100230.77
2022-08-28T19:25:31.177Z,100232.38
2022-08-28T19:28:02.721Z,100233.05
2022-08-28T19:30:33.970Z,100237.70
2022-08-28T19:33:05.749Z,100241.35
2022-08-28T19:35:34.019Z,100241.88
2022-08-28T19:38:02.294Z,100238.58
2022-08-28T19:40:31.930Z,100243.44
2022-08-28T19:43:00.852Z,100242.26
2022-08-28T19:45:31.854Z,100245.54
2022-08-28T19:48:01.568Z,100224.52
2022-08-28T19:50:29.608Z,100236.80
2022-08-28T19:52:57.819Z,100227.91
2022-08-28T19:55:28.151Z,100234.03
2022-08-28T19:57:56.790Z,100232.46
2022-08-28T20:00:33.166Z,100229.20
2022-08-28T20:03:01.199Z,100224.10
2022-08-28T20:05:29.260Z,100219.70
2022-08-28T20:07:57.300Z,100216.56
2022-08-28T20:10:27.392Z,100209.11
2022-08-28T20:12:55.424Z,100196.58
2022-08-28T20:15:24.151Z,100206.46
2022-08-28T20:17:52.212Z,100206.38
2022-08-28T20:20:22.434Z,100203.36
2022-08-28T20:22:54.051Z,100202.79
2022-08-28T20:25:22.478Z,100206.76
2022-08-28T20:27:50.389Z,100205.68
2022-08-28T20:30:18.439Z,100206.83
2022-08-28T20:32:46.567Z,100208.39
2022-08-28T20:35:15.495Z,100205.48
2022-08-28T20:37:44.941Z,100202.59
2022-08-28T20:40:16.633Z,100205.25
2022-08-28T20:42:45.469Z,100210.16
2022-08-28T20:45:15.563Z,100211.04
2022-08-28T20:47:44.595Z,100207.70
2022-08-28T20:50:14.231Z,100209.20
2022-08-28T20:52:42.235Z,100209.44
2022-08-28T20:55:12.757Z,100206.50
2022-08-28T20:57:41.701Z,100205.23
2022-08-28T21:00:10.941Z,100204.92
2022-08-28T21:02:39.873Z,100212.47
2022-08-28T21:05:09.237Z,100209.16
2022-08-28T21:07:37.912Z,100211.23
2022-08-28T21:10:07.934Z,100210.48
2022-08-28T21:12:38.547Z,100200.10
2022-08-28T21:15:10.152Z,100212.65
2022-08-28T21:17:38.708Z,100214.65
2022-08-28T21:20:12.005Z,100220.04
2022-08-28T21:22:41.404Z,100224.45
2022-08-28T21:25:11.092Z,100228.11
2022-08-28T21:27:39.955Z,100227.28
2022-08-28T21:30:11.357Z,100226.16
2022-08-28T21:32:39.468Z,100232.17
2022-08-28T21:35:13.114Z,100240.20
2022-08-28T21:37:42.209Z,100247.69
2022-08-28T21:40:13.475Z,100249.73
2022-08-28T21:42:41.885Z,100252.19
2022-08-28T21:45:12.163Z,100254.15
2022-08-28T21:47:48.724Z,100256.41
2022-08-28T21:50:17.733Z,100258.21
2022-08-28T21:52:46.192Z,100259.80
2022-08-28T21:55:16.357Z,100264.73
2022-08-28T21:57:44.784Z,100263.89
2022-08-28T22:00:17.651Z,100273.18
2022-08-28T22:02:46.743Z,100267.20
2022-08-28T22:05:16.175Z,100277.85
2022-08-28T22:07:45.139Z,100281.45
2022-08-28T22:10:20.350Z,100275.58
2022-08-28T22:12:49.354Z,100275.09
2022-08-28T22:15:17.725Z,100270.52
2022-08-28T22:17:45.821Z,100269.64
2022-08-28T22:20:13.923Z,100273.17
2022-08-28T22:23:00.663Z,100269.42
2022-08-28T22:25:28.963Z,100274.05
2022-08-28T22:27:57.815Z,100267.77
2022-08-28T22:30:25.813Z,100269.31
2022-08-28T22:32:55.079Z,100268.30
2022-08-28T22:35:23.409Z,100269.34
2022-08-28T22:37:51.276Z,100267.73
2022-08-28T22:40:20.427Z,100258.02
2022-08-28T22:42:48.623Z,100282.35
2022-08-28T22:45:18.286Z,100277.53
2022-08-28T22:47:49.705Z,100284.64
2022-08-28T22:50:18.831Z,100289.64
2022-08-28T22:52:48.487Z,100287.74
2022-08-28T22:55:18.729Z,100270.69
2022-08-28T22:57:47.703Z,100276.91
2022-08-28T23:00:20.574Z,100277.16
2022-08-28T23:02:50.128Z,100285.19
2022-08-28T23:05:18.792Z,100284.40
2022-08-28T23:07:46.724Z,100285.32
2022-08-28T23:10:15.967Z,100271.48
2022-08-28T23:12:43.879Z,100266.58
2022-08-28T23:15:18.158Z,100270.08
2022-08-28T23:17:46.405Z,100274.30
2022-08-28T23:20:17.625Z,100282.80
2022-08-28T23:22:46.263Z,100294.02
2022-08-28T23:25:17.483Z,100296.95
2022-08-28T23:27:46.536Z,100297.77
2022-08-28T23:30:16.770Z,100304.55
2022-08-28T23:32:45.460Z,100300.84
2022-08-28T23:35:14.652Z,100295.73
2022-08-28T23:37:48.149Z,100286.88
2022-08-28T23:40:20.104Z,100283.77
2022-08-28T23:42:49.110Z,100286.08
2022-08-28T23:45:19.232Z,100284.06
2022-08-28T23:47:47.808Z,100276.70
2022-08-28T23:50:21.303Z,100278.41
2022-08-28T23:52:49.821Z,100277.30
2022-08-28T23:55:19.627Z,100277.05
2022-08-28T23:57:47.804Z,100272.92
